Time;durP1;ratioP1;P1;durP2;ratioP2;P2;SDS_P1;SDS_P2;PMS_P1;PMS_P2;Temp;Humidity;BMP_temperature;BMP_pressure;BME280_temperature;BME280_humidity;BME280_pressure;Samples;Min_cycle;Max_cycle;Signal;HPM_P1;HPM_P2
2021/09/25 00:00:48;;;;;;;5.20;2.30;;;;;;;;;;4987150;28;20241;-71
2021/09/25 00:03:14;;;;;;;3.97;2.40;;;;;;;;;;4992130;28;20180;-71
2021/09/25 00:05:39;;;;;;;8.00;3.17;;;;;;;;;;4990981;28;20995;-70
2021/09/25 00:08:05;;;;;;;5.90;2.53;;;;;;;;;;4994517;28;20441;-70
2021/09/25 00:10:31;;;;;;;5.70;2.50;;;;;;;;;;4989364;28;22139;-69
2021/09/25 00:12:57;;;;;;;7.10;3.25;;;;;;;;;;4994010;28;20187;-69
2021/09/25 00:15:23;;;;;;;6.55;2.75;;;;;;;;;;4991549;28;20183;-71
2021/09/25 00:17:49;;;;;;;4.93;2.20;;;;;;;;;;4993736;28;20826;-71
2021/09/25 00:20:15;;;;;;;5.53;2.95;;;;;;;;;;4991836;28;20270;-71
2021/09/25 00:22:41;;;;;;;5.35;3.20;;;;;;;;;;4993165;28;20175;-71
2021/09/25 00:25:06;;;;;;;6.38;3.40;;;;;;;;;;4993400;28;20298;-72
2021/09/25 00:27:31;;;;;;;7.28;3.03;;;;;;;;;;4991274;28;20725;-70
2021/09/25 00:29:57;;;;;;;5.97;3.00;;;;;;;;;;4992333;28;20185;-70
2021/09/25 00:32:22;;;;;;;5.50;3.03;;;;;;;;;;4994251;28;20246;-69
2021/09/25 00:34:47;;;;;;;7.43;3.58;;;;;;;;;;4994063;28;20458;-70
2021/09/25 00:37:12;;;;;;;5.32;2.95;;;;;;;;;;4994488;28;20707;-70
2021/09/25 00:39:37;;;;;;;6.33;3.13;;;;;;;;;;4994346;28;20657;-70
2021/09/25 00:42:03;;;;;;;7.95;3.60;;;;;;;;;;4996165;28;20535;-70
2021/09/25 00:44:28;;;;;;;5.38;3.45;;;;;;;;;;4994719;28;20573;-70
2021/09/25 00:46:54;;;;;;;6.85;4.25;;;;;;;;;;4992692;28;20226;-70
2021/09/25 00:49:20;;;;;;;6.20;4.13;;;;;;;;;;4990109;28;20717;-70
2021/09/25 00:51:46;;;;;;;6.38;3.33;;;;;;;;;;4990084;28;20303;-70
2021/09/25 00:54:11;;;;;;;7.72;3.40;;;;;;;;;;4995408;28;20716;-70
2021/09/25 00:56:37;;;;;;;6.63;4.03;;;;;;;;;;4990144;28;20207;-69
2021/09/25 00:59:03;;;;;;;6.13;3.67;;;;;;;;;;4992217;28;20266;-70
2021/09/25 01:01:28;;;;;;;6.43;4.70;;;;;;;;;;4990105;28;20184;-70
2021/09/25 01:03:53;;;;;;;10.13;4.93;;;;;;;;;;4991655;28;20678;-70
2021/09/25 01:06:18;;;;;;;8.70;3.80;;;;;;;;;;4992428;28;20975;-70
2021/09/25 01:08:44;;;;;;;6.60;4.18;;;;;;;;;;4990442;28;20967;-70
2021/09/25 01:11:09;;;;;;;7.18;3.95;;;;;;;;;;4982174;28;20211;-69
2021/09/25 01:13:34;;;;;;;5.65;3.78;;;;;;;;;;4990755;28;20175;-70
2021/09/25 01:15:59;;;;;;;8.75;3.88;;;;;;;;;;4991555;28;20231;-70
2021/09/25 01:18:24;;;;;;;7.45;3.97;;;;;;;;;;4993361;28;20191;-70
2021/09/25 01:20:50;;;;;;;7.87;4.50;;;;;;;;;;4998040;28;20183;-70
2021/09/25 01:23:15;;;;;;;7.05;4.13;;;;;;;;;;4999317;28;21982;-70
2021/09/25 01:25:40;;;;;;;6.30;4.65;;;;;;;;;;5003466;28;20580;-70
2021/09/25 01:28:06;;;;;;;13.50;5.15;;;;;;;;;;4989473;28;20195;-70
2021/09/25 01:30:31;;;;;;;7.97;4.60;;;;;;;;;;4972251;28;20506;-71
2021/09/25 01:32:58;;;;;;;5.35;3.97;;;;;;;;;;4987179;28;20184;-71
2021/09/25 01:35:23;;;;;;;8.80;4.32;;;;;;;;;;4987645;28;20171;-70
2021/09/25 01:37:50;;;;;;;6.97;4.28;;;;;;;;;;4991161;28;20178;-71
2021/09/25 01:40:15;;;;;;;9.77;4.35;;;;;;;;;;4992339;28;20668;-71
2021/09/25 01:42:40;;;;;;;8.48;5.00;;;;;;;;;;4993260;28;20175;-71
2021/09/25 01:45:06;;;;;;;7.15;4.35;;;;;;;;;;4991779;28;20588;-69
2021/09/25 01:47:31;;;;;;;8.15;4.95;;;;;;;;;;4991294;28;20259;-70
2021/09/25 01:49:59;;;;;;;11.98;5.80;;;;;;;;;;4990771;28;20183;-70
2021/09/25 01:52:24;;;;;;;14.73;5.88;;;;;;;;;;4983150;28;20199;-71
2021/09/25 01:54:49;;;;;;;11.38;5.80;;;;;;;;;;4991621;28;20195;-69
2021/09/25 01:57:15;;;;;;;9.53;5.53;;;;;;;;;;4988883;28;20796;-70
2021/09/25 01:59:40;;;;;;;9.73;5.40;;;;;;;;;;4989777;28;20429;-71
2021/09/25 02:02:05;;;;;;;10.55;5.57;;;;;;;;;;4990962;28;20284;-69
2021/09/25 02:04:31;;;;;;;7.25;5.22;;;;;;;;;;4989364;28;20190;-70
2021/09/25 02:06:56;;;;;;;8.02;5.65;;;;;;;;;;4990240;28;20269;-71
2021/09/25 02:09:22;;;;;;;8.20;5.53;;;;;;;;;;4988198;28;20588;-69
2021/09/25 02:11:47;;;;;;;10.03;6.03;;;;;;;;;;4988894;28;20472;-71
2021/09/25 02:14:12;;;;;;;11.93;5.55;;;;;;;;;;4989700;28;20532;-71
2021/09/25 02:16:37;;;;;;;10.50;6.57;;;;;;;;;;4989045;28;20626;-70
2021/09/25 02:19:02;;;;;;;12.88;6.40;;;;;;;;;;4989080;28;20437;-69
2021/09/25 02:21:28;;;;;;;9.60;6.78;;;;;;;;;;4988130;28;20190;-72
2021/09/25 02:23:53;;;;;;;13.43;6.85;;;;;;;;;;4986437;28;20179;-69
2021/09/25 02:26:18;;;;;;;8.70;6.70;;;;;;;;;;4986923;28;20195;-72
2021/09/25 02:28:43;;;;;;;11.32;7.10;;;;;;;;;;4987186;28;20567;-71
2021/09/25 02:31:08;;;;;;;8.60;6.57;;;;;;;;;;4990614;28;20246;-71
2021/09/25 02:33:34;;;;;;;11.07;7.32;;;;;;;;;;4985108;28;20425;-71
2021/09/25 02:35:59;;;;;;;12.05;7.07;;;;;;;;;;4989822;28;20204;-71
2021/09/25 02:38:24;;;;;;;12.90;7.32;;;;;;;;;;4988122;28;20183;-71
2021/09/25 02:40:49;;;;;;;11.63;6.82;;;;;;;;;;4988411;28;20186;-71
2021/09/25 02:43:15;;;;;;;15.27;7.70;;;;;;;;;;4987826;28;20557;-72
2021/09/25 02:45:40;;;;;;;12.18;7.80;;;;;;;;;;4989527;28;20258;-71
2021/09/25 02:48:05;;;;;;;15.75;9.10;;;;;;;;;;4989877;28;20195;-71
2021/09/25 02:50:31;;;;;;;10.65;7.10;;;;;;;;;;4988920;28;20202;-69
2021/09/25 02:52:56;;;;;;;13.38;7.68;;;;;;;;;;4989731;28;20175;-70
2021/09/25 02:55:21;;;;;;;11.65;7.35;;;;;;;;;;4990294;28;20176;-70
2021/09/25 02:57:47;;;;;;;12.07;7.85;;;;;;;;;;4989667;28;20179;-72
2021/09/25 03:00:17;;;;;;;10.30;7.95;;;;;;;;;;4990274;28;20211;-71
2021/09/25 03:02:42;;;;;;;14.68;8.40;;;;;;;;;;4989146;28;20688;-72
2021/09/25 03:05:07;;;;;;;14.50;9.40;;;;;;;;;;4992492;28;20215;-70
2021/09/25 03:07:33;;;;;;;12.30;8.32;;;;;;;;;;4990300;28;20280;-71
2021/09/25 03:09:58;;;;;;;10.52;7.75;;;;;;;;;;4990018;28;20207;-71
2021/09/25 03:12:23;;;;;;;10.88;8.88;;;;;;;;;;4990415;28;20234;-71
2021/09/25 03:14:48;;;;;;;10.60;8.13;;;;;;;;;;4992399;28;20267;-72
2021/09/25 03:17:13;;;;;;;13.60;8.18;;;;;;;;;;4993908;28;20203;-71
2021/09/25 03:19:39;;;;;;;14.40;10.52;;;;;;;;;;4991296;28;20563;-72
2021/09/25 03:22:04;;;;;;;15.97;8.83;;;;;;;;;;4992345;28;20179;-70
2021/09/25 03:24:29;;;;;;;17.08;9.60;;;;;;;;;;4991423;28;20438;-69
2021/09/25 03:26:54;;;;;;;13.63;9.30;;;;;;;;;;4991357;28;20207;-71
2021/09/25 03:29:21;;;;;;;14.57;10.48;;;;;;;;;;4991466;28;20557;-72
2021/09/25 03:31:46;;;;;;;13.13;10.30;;;;;;;;;;4990220;28;20266;-71
2021/09/25 03:34:14;;;;;;;13.50;9.95;;;;;;;;;;4989709;28;20175;-71
2021/09/25 03:36:39;;;;;;;15.50;10.27;;;;;;;;;;4991143;28;20223;-71
2021/09/25 03:39:04;;;;;;;12.07;9.63;;;;;;;;;;4990975;28;20172;-71
2021/09/25 03:41:30;;;;;;;13.30;9.60;;;;;;;;;;4982989;28;20176;-71
2021/09/25 03:43:55;;;;;;;12.77;9.95;;;;;;;;;;4983796;28;20184;-71
2021/09/25 03:46:20;;;;;;;12.57;9.57;;;;;;;;;;4990869;28;20195;-71
2021/09/25 03:48:46;;;;;;;14.32;10.23;;;;;;;;;;4986364;28;20541;-72
2021/09/25 03:51:11;;;;;;;14.40;10.43;;;;;;;;;;4992092;28;20242;-71
2021/09/25 03:53:36;;;;;;;14.15;10.13;;;;;;;;;;4993519;28;20225;-71
2021/09/25 03:56:07;;;;;;;15.88;11.98;;;;;;;;;;4991786;28;20206;-70
2021/09/25 03:58:32;;;;;;;13.25;9.80;;;;;;;;;;4991370;28;20286;-71
2021/09/25 04:00:58;;;;;;;15.13;10.15;;;;;;;;;;4987159;28;20617;-71
2021/09/25 04:03:23;;;;;;;15.70;11.07;;;;;;;;;;4992331;28;20242;-71
2021/09/25 04:05:48;;;;;;;18.33;11.57;;;;;;;;;;4986590;28;20777;-71
2021/09/25 04:08:13;;;;;;;14.00;10.90;;;;;;;;;;4996015;28;20413;-70
2021/09/25 04:10:38;;;;;;;17.00;11.20;;;;;;;;;;4990594;28;20721;-71
2021/09/25 04:13:03;;;;;;;17.17;11.77;;;;;;;;;;4990542;28;20432;-72
2021/09/25 04:15:29;;;;;;;12.77;10.47;;;;;;;;;;4993127;28;20943;-71
2021/09/25 04:17:54;;;;;;;14.50;11.05;;;;;;;;;;4988712;28;20421;-69
2021/09/25 04:20:20;;;;;;;16.80;12.82;;;;;;;;;;4984610;28;20191;-70
2021/09/25 04:22:45;;;;;;;13.88;10.73;;;;;;;;;;4989322;28;20230;-71
2021/09/25 04:25:10;;;;;;;14.35;10.20;;;;;;;;;;4989069;28;20638;-71
2021/09/25 04:27:35;;;;;;;15.70;11.67;;;;;;;;;;4995470;28;20713;-71
2021/09/25 04:30:01;;;;;;;15.05;10.35;;;;;;;;;;4991387;28;20444;-71
2021/09/25 04:32:27;;;;;;;14.77;10.65;;;;;;;;;;4985596;28;20211;-71
2021/09/25 04:34:52;;;;;;;17.50;11.02;;;;;;;;;;4991113;28;20184;-73
2021/09/25 04:37:18;;;;;;;14.45;10.45;;;;;;;;;;4989416;28;20266;-72
2021/09/25 04:39:43;;;;;;;15.55;10.63;;;;;;;;;;4985086;28;20187;-71
2021/09/25 04:42:08;;;;;;;14.77;9.88;;;;;;;;;;4990866;28;20216;-71
2021/09/25 04:44:33;;;;;;;16.90;10.80;;;;;;;;;;4989279;28;20186;-71
2021/09/25 04:46:58;;;;;;;14.43;10.18;;;;;;;;;;4990003;28;20230;-71
2021/09/25 04:49:24;;;;;;;20.23;11.23;;;;;;;;;;4991266;28;20188;-72
2021/09/25 04:51:49;;;;;;;13.25;10.95;;;;;;;;;;4991275;28;20214;-71
2021/09/25 04:54:14;;;;;;;14.75;10.73;;;;;;;;;;4990017;28;20176;-71
2021/09/25 04:56:39;;;;;;;14.52;10.20;;;;;;;;;;4986698;28;20246;-71
2021/09/25 04:59:04;;;;;;;14.70;9.13;;;;;;;;;;4988941;28;20196;-71
2021/09/25 05:01:31;;;;;;;21.33;12.45;;;;;;;;;;4991406;28;20179;-71
2021/09/25 05:03:57;;;;;;;16.63;10.95;;;;;;;;;;4990900;28;20424;-71
2021/09/25 05:06:22;;;;;;;14.75;11.43;;;;;;;;;;4991058;28;20582;-71
2021/09/25 05:08:47;;;;;;;18.45;11.77;;;;;;;;;;4990980;28;20672;-71
2021/09/25 05:11:12;;;;;;;18.92;11.95;;;;;;;;;;4989878;28;20466;-71
2021/09/25 05:13:37;;;;;;;16.48;11.65;;;;;;;;;;4989693;28;20179;-71
2021/09/25 05:16:03;;;;;;;20.75;12.02;;;;;;;;;;4990604;28;20206;-72
2021/09/25 05:18:28;;;;;;;20.80;12.43;;;;;;;;;;4989543;28;20187;-72
2021/09/25 05:20:53;;;;;;;17.95;11.02;;;;;;;;;;4990355;28;20180;-72
2021/09/25 05:23:19;;;;;;;19.13;12.05;;;;;;;;;;4985288;28;20717;-71
2021/09/25 05:25:44;;;;;;;20.45;11.57;;;;;;;;;;4995195;28;20195;-72
2021/09/25 05:28:09;;;;;;;24.52;13.45;;;;;;;;;;4991800;28;20195;-71
2021/09/25 05:30:36;;;;;;;16.48;11.32;;;;;;;;;;4989775;28;20180;-71
2021/09/25 05:33:01;;;;;;;21.77;12.25;;;;;;;;;;4990550;28;20660;-69
2021/09/25 05:35:26;;;;;;;20.15;12.32;;;;;;;;;;4989828;28;20192;-71
2021/09/25 05:37:52;;;;;;;18.30;12.25;;;;;;;;;;4988526;28;20184;-72
2021/09/25 05:40:17;;;;;;;18.65;13.20;;;;;;;;;;4990055;28;20179;-71
2021/09/25 05:42:42;;;;;;;16.63;12.52;;;;;;;;;;4989349;28;20181;-72
2021/09/25 05:45:08;;;;;;;17.58;13.07;;;;;;;;;;4988714;28;20246;-72
2021/09/25 05:47:33;;;;;;;20.17;13.77;;;;;;;;;;4987730;28;20274;-71
2021/09/25 05:49:58;;;;;;;20.63;13.65;;;;;;;;;;4986177;28;20178;-71
2021/09/25 05:52:23;;;;;;;23.42;14.85;;;;;;;;;;4986453;28;20635;-70
2021/09/25 05:54:49;;;;;;;20.13;14.90;;;;;;;;;;4989074;28;20199;-71
2021/09/25 05:57:14;;;;;;;23.05;16.90;;;;;;;;;;4989745;28;20521;-70
2021/09/25 05:59:39;;;;;;;25.80;15.88;;;;;;;;;;4990849;28;20172;-71
2021/09/25 06:02:04;;;;;;;18.58;15.07;;;;;;;;;;4988963;28;20176;-71
2021/09/25 06:04:30;;;;;;;22.83;15.70;;;;;;;;;;4988318;28;20268;-71
2021/09/25 06:06:56;;;;;;;22.65;15.48;;;;;;;;;;4988372;28;20215;-71
2021/09/25 06:09:21;;;;;;;21.73;15.48;;;;;;;;;;4988816;28;20175;-71
2021/09/25 06:11:47;;;;;;;22.63;14.90;;;;;;;;;;4988924;28;20209;-72
2021/09/25 06:14:12;;;;;;;22.40;14.90;;;;;;;;;;4990194;28;20238;-71
2021/09/25 06:16:37;;;;;;;25.75;15.55;;;;;;;;;;4991304;28;20198;-70
2021/09/25 06:19:02;;;;;;;18.25;13.68;;;;;;;;;;4989743;28;20183;-71
2021/09/25 06:21:28;;;;;;;20.05;13.25;;;;;;;;;;4988960;28;20180;-72
2021/09/25 06:23:53;;;;;;;20.73;14.00;;;;;;;;;;4989632;28;20183;-71
2021/09/25 06:26:18;;;;;;;19.57;13.87;;;;;;;;;;4988419;28;20207;-71
2021/09/25 06:28:47;;;;;;;19.10;14.10;;;;;;;;;;4989451;28;20429;-71
2021/09/25 06:31:15;;;;;;;15.40;12.73;;;;;;;;;;4988563;28;20207;-71
2021/09/25 06:33:42;;;;;;;16.88;13.35;;;;;;;;;;4990594;28;20254;-70
2021/09/25 06:36:07;;;;;;;15.35;12.77;;;;;;;;;;4992378;28;20198;-71
2021/09/25 06:38:32;;;;;;;16.35;12.00;;;;;;;;;;4993337;28;20176;-72
2021/09/25 06:40:57;;;;;;;15.97;12.27;;;;;;;;;;4993390;28;20227;-71
2021/09/25 06:43:22;;;;;;;15.13;11.70;;;;;;;;;;4989399;28;20429;-71
2021/09/25 06:45:48;;;;;;;15.13;12.67;;;;;;;;;;4993411;28;20492;-71
2021/09/25 06:48:13;;;;;;;18.58;12.35;;;;;;;;;;4993770;28;20495;-71
2021/09/25 06:50:38;;;;;;;13.57;11.90;;;;;;;;;;4993281;28;20656;-71
2021/09/25 06:53:03;;;;;;;17.48;13.15;;;;;;;;;;4991931;28;20657;-71
2021/09/25 06:55:28;;;;;;;18.73;12.70;;;;;;;;;;4993972;28;20633;-71
2021/09/25 06:57:55;;;;;;;15.07;11.37;;;;;;;;;;4990424;28;20641;-71
2021/09/25 07:00:21;;;;;;;18.25;12.55;;;;;;;;;;4993116;28;20419;-71
2021/09/25 07:02:46;;;;;;;16.63;11.40;;;;;;;;;;4992561;28;20176;-70
2021/09/25 07:05:11;;;;;;;18.00;12.27;;;;;;;;;;4992720;28;20797;-68
2021/09/25 07:07:36;;;;;;;14.65;10.75;;;;;;;;;;4992893;28;20543;-69
2021/09/25 07:10:03;;;;;;;17.85;11.80;;;;;;;;;;4991425;28;20193;-71
2021/09/25 07:12:28;;;;;;;21.35;12.88;;;;;;;;;;4992177;28;20254;-70
2021/09/25 07:14:54;;;;;;;16.77;12.48;;;;;;;;;;4993413;28;20187;-71
2021/09/25 07:17:19;;;;;;;13.25;11.13;;;;;;;;;;4992983;28;20223;-69
2021/09/25 07:19:44;;;;;;;16.67;12.20;;;;;;;;;;4991278;28;20260;-69
2021/09/25 07:22:11;;;;;;;20.60;11.00;;;;;;;;;;4990775;28;20425;-70
2021/09/25 07:24:36;;;;;;;15.07;11.18;;;;;;;;;;4993377;28;20977;-72
2021/09/25 07:27:02;;;;;;;13.00;10.53;;;;;;;;;;4990246;28;20215;-70
2021/09/25 07:29:27;;;;;;;17.42;11.07;;;;;;;;;;4991645;28;20483;-69
2021/09/25 07:31:53;;;;;;;17.40;12.50;;;;;;;;;;4990865;28;20196;-69
2021/09/25 07:34:18;;;;;;;12.87;9.73;;;;;;;;;;4992081;28;20175;-70
2021/09/25 07:36:43;;;;;;;16.38;11.65;;;;;;;;;;4988184;28;20453;-70
2021/09/25 07:39:08;;;;;;;15.05;10.63;;;;;;;;;;4991616;28;20184;-69
2021/09/25 07:41:34;;;;;;;14.90;11.68;;;;;;;;;;4993681;28;20230;-69
2021/09/25 07:43:59;;;;;;;20.65;12.32;;;;;;;;;;4990211;28;20665;-71
2021/09/25 07:46:25;;;;;;;15.95;12.35;;;;;;;;;;4990111;28;20208;-70
2021/09/25 07:48:50;;;;;;;16.98;12.73;;;;;;;;;;4992306;28;20191;-69
2021/09/25 07:51:15;;;;;;;16.15;12.20;;;;;;;;;;4992037;28;20226;-69
2021/09/25 07:53:40;;;;;;;15.30;12.07;;;;;;;;;;4991094;28;20179;-71
2021/09/25 07:56:06;;;;;;;22.65;12.73;;;;;;;;;;4993070;28;20196;-69
2021/09/25 07:58:31;;;;;;;16.10;12.40;;;;;;;;;;4993766;28;20588;-68
2021/09/25 08:00:56;;;;;;;18.10;12.70;;;;;;;;;;4992203;28;20179;-69
2021/09/25 08:03:21;;;;;;;17.63;11.83;;;;;;;;;;4993622;28;20556;-69
2021/09/25 08:05:46;;;;;;;16.15;12.00;;;;;;;;;;4992941;28;20484;-71
2021/09/25 08:08:12;;;;;;;16.83;11.70;;;;;;;;;;5023340;23;20259;-71
2021/09/25 08:10:37;;;;;;;13.97;11.23;;;;;;;;;;5012514;28;20184;-70
2021/09/25 08:13:02;;;;;;;20.73;12.15;;;;;;;;;;5021841;28;20690;-69
2021/09/25 08:15:28;;;;;;;16.52;12.38;;;;;;;;;;5012242;28;20179;-69
2021/09/25 08:17:53;;;;;;;17.80;12.25;;;;;;;;;;5001289;28;20195;-69
2021/09/25 08:20:18;;;;;;;17.17;12.95;;;;;;;;;;4994303;28;20211;-69
2021/09/25 08:22:44;;;;;;;21.42;12.52;;;;;;;;;;4991827;28;20216;-68
2021/09/25 08:25:10;;;;;;;20.40;12.85;;;;;;;;;;4987026;28;20242;-71
2021/09/25 08:27:35;;;;;;;16.92;12.15;;;;;;;;;;4988570;28;20206;-69
2021/09/25 08:30:00;;;;;;;19.65;14.57;;;;;;;;;;4990020;28;20183;-69
2021/09/25 08:32:26;;;;;;;21.77;14.73;;;;;;;;;;4990117;28;20238;-68
2021/09/25 08:34:51;;;;;;;18.13;12.75;;;;;;;;;;4990683;28;20214;-69
2021/09/25 08:37:17;;;;;;;17.60;12.77;;;;;;;;;;4989672;28;20215;-69
2021/09/25 08:39:42;;;;;;;19.17;14.80;;;;;;;;;;4993952;28;20207;-70
2021/09/25 08:42:10;;;;;;;21.30;14.45;;;;;;;;;;4988424;28;20188;-69
2021/09/25 08:44:35;;;;;;;22.88;13.90;;;;;;;;;;4990180;28;20184;-70
2021/09/25 08:47:00;;;;;;;23.00;15.00;;;;;;;;;;4995896;28;20674;-70
2021/09/25 08:49:26;;;;;;;21.17;15.17;;;;;;;;;;4991996;28;20429;-70
2021/09/25 08:51:51;;;;;;;21.15;15.52;;;;;;;;;;4992421;28;20544;-69
2021/09/25 08:54:16;;;;;;;25.70;16.45;;;;;;;;;;4993883;28;20187;-69
2021/09/25 08:56:41;;;;;;;23.80;16.48;;;;;;;;;;4991712;28;20188;-70
2021/09/25 08:59:06;;;;;;;26.13;16.73;;;;;;;;;;4992382;28;20182;-70
2021/09/25 09:01:32;;;;;;;24.83;16.10;;;;;;;;;;4992522;28;20172;-70
2021/09/25 09:03:59;;;;;;;22.92;15.93;;;;;;;;;;4992123;28;20250;-70
2021/09/25 09:06:24;;;;;;;23.95;16.40;;;;;;;;;;4997159;28;20203;-69
2021/09/25 09:08:51;;;;;;;24.23;16.77;;;;;;;;;;4991762;28;20202;-69
2021/09/25 09:11:17;;;;;;;22.05;15.95;;;;;;;;;;4998526;28;20530;-69
2021/09/25 09:13:43;;;;;;;25.67;15.75;;;;;;;;;;4991071;28;20246;-69
2021/09/25 09:16:09;;;;;;;23.55;17.25;;;;;;;;;;4984023;28;20234;-70
2021/09/25 09:18:35;;;;;;;24.40;18.67;;;;;;;;;;4988360;28;20183;-68
2021/09/25 09:21:00;;;;;;;26.33;16.90;;;;;;;;;;4990705;28;20184;-69
2021/09/25 09:23:25;;;;;;;22.90;16.63;;;;;;;;;;4991429;28;20668;-69
2021/09/25 09:25:50;;;;;;;24.40;16.03;;;;;;;;;;4995775;28;20412;-69
2021/09/25 09:28:36;;;;;;;20.33;15.57;;;;;;;;;;4991581;28;20912;-70
2021/09/25 09:31:03;;;;;;;20.30;15.07;;;;;;;;;;4991524;28;20463;-69
2021/09/25 09:33:32;;;;;;;23.23;16.50;;;;;;;;;;4992272;28;20270;-69
2021/09/25 09:36:16;;;;;;;20.40;15.23;;;;;;;;;;4991436;28;20249;-69
2021/09/25 09:38:49;;;;;;;23.85;17.80;;;;;;;;;;4995069;28;20700;-69
2021/09/25 09:41:14;;;;;;;24.58;18.10;;;;;;;;;;5003724;28;20190;-69
2021/09/25 09:43:40;;;;;;;23.93;17.00;;;;;;;;;;4989326;28;20180;-69
2021/09/25 09:46:05;;;;;;;22.50;16.17;;;;;;;;;;5003850;28;20421;-69
2021/09/25 09:48:30;;;;;;;22.00;17.73;;;;;;;;;;5001196;28;20188;-68
2021/09/25 09:50:57;;;;;;;26.25;18.42;;;;;;;;;;5004937;28;20236;-69
2021/09/25 09:53:22;;;;;;;23.08;18.50;;;;;;;;;;5002583;28;20168;-69
2021/09/25 09:55:47;;;;;;;25.60;18.77;;;;;;;;;;5004681;28;20229;-69
2021/09/25 09:58:13;;;;;;;25.20;19.38;;;;;;;;;;4992498;28;20798;-68
2021/09/25 10:00:38;;;;;;;25.08;18.60;;;;;;;;;;4991708;28;20176;-69
2021/09/25 10:03:04;;;;;;;21.33;17.08;;;;;;;;;;4992207;28;20601;-68
2021/09/25 10:05:29;;;;;;;26.10;19.00;;;;;;;;;;4992111;28;20696;-68
2021/09/25 10:07:54;;;;;;;23.92;18.35;;;;;;;;;;4993831;28;20199;-69
2021/09/25 10:10:21;;;;;;;23.05;18.98;;;;;;;;;;4999307;28;20196;-69
2021/09/25 10:12:46;;;;;;;25.10;18.70;;;;;;;;;;5006055;28;20203;-70
2021/09/25 10:15:13;;;;;;;27.95;18.58;;;;;;;;;;5000426;28;20251;-70
2021/09/25 10:17:38;;;;;;;24.30;18.55;;;;;;;;;;5010213;28;20195;-69
2021/09/25 10:20:03;;;;;;;21.20;16.00;;;;;;;;;;4995246;28;20184;-69
2021/09/25 10:22:32;;;;;;;21.02;15.93;;;;;;;;;;4997254;28;20650;-69
2021/09/25 10:25:02;;;;;;;23.48;17.48;;;;;;;;;;4998923;28;20684;-69
2021/09/25 10:27:27;;;;;;;22.05;17.08;;;;;;;;;;5000587;28;20681;-69
2021/09/25 10:29:53;;;;;;;21.75;16.80;;;;;;;;;;4995999;28;20262;-69
2021/09/25 10:32:18;;;;;;;21.00;17.25;;;;;;;;;;4996677;28;20282;-69
2021/09/25 10:34:52;;;;;;;26.65;18.35;;;;;;;;;;4997941;28;20182;-70
2021/09/25 10:37:18;;;;;;;31.40;22.83;;;;;;;;;;4991218;28;20257;-68
2021/09/25 10:39:53;;;;;;;27.65;21.17;;;;;;;;;;4999289;28;20255;-69
2021/09/25 10:42:19;;;;;;;30.05;21.38;;;;;;;;;;4995066;28;20194;-69
2021/09/25 10:44:47;;;;;;;31.08;20.63;;;;;;;;;;4994651;28;20172;-69
2021/09/25 10:47:14;;;;;;;26.90;19.70;;;;;;;;;;4994776;28;20195;-69
2021/09/25 10:49:40;;;;;;;24.27;20.70;;;;;;;;;;4994515;28;20180;-69
2021/09/25 10:52:05;;;;;;;29.58;20.90;;;;;;;;;;4995544;28;20203;-69
2021/09/25 10:54:30;;;;;;;23.63;20.30;;;;;;;;;;4994426;28;20187;-69
2021/09/25 10:56:57;;;;;;;27.93;20.73;;;;;;;;;;4994687;28;20206;-69
2021/09/25 10:59:22;;;;;;;33.35;24.08;;;;;;;;;;4985253;28;20417;-69
2021/09/25 11:01:53;;;;;;;25.70;20.73;;;;;;;;;;4991553;28;20436;-70
2021/09/25 11:04:19;;;;;;;26.40;20.40;;;;;;;;;;4993535;28;20413;-70
2021/09/25 11:06:56;;;;;;;26.42;21.02;;;;;;;;;;4994288;28;20211;-69
2021/09/25 11:09:32;;;;;;;29.67;21.70;;;;;;;;;;4993765;28;20274;-69
2021/09/25 11:11:59;;;;;;;29.80;22.15;;;;;;;;;;4994419;28;20207;-69
2021/09/25 11:14:28;;;;;;;28.92;22.88;;;;;;;;;;4994225;28;20174;-69
2021/09/25 11:16:56;;;;;;;34.58;22.73;;;;;;;;;;4997594;28;20427;-69
2021/09/25 11:19:21;;;;;;;32.03;23.67;;;;;;;;;;4992871;28;20168;-69
2021/09/25 11:21:50;;;;;;;27.90;21.42;;;;;;;;;;4994136;28;20175;-69
2021/09/25 11:24:16;;;;;;;30.17;21.48;;;;;;;;;;4987726;28;20252;-69
2021/09/25 11:26:41;;;;;;;28.13;20.70;;;;;;;;;;4984771;28;20285;-69
2021/09/25 11:29:07;;;;;;;29.17;22.13;;;;;;;;;;4993432;28;20258;-69
2021/09/25 11:31:33;;;;;;;28.35;22.52;;;;;;;;;;4993817;28;20199;-69
2021/09/25 11:33:58;;;;;;;28.40;21.10;;;;;;;;;;4994013;28;20183;-69
2021/09/25 11:36:26;;;;;;;26.38;20.45;;;;;;;;;;4993258;28;20199;-69
2021/09/25 11:38:51;;;;;;;29.45;21.02;;;;;;;;;;4997750;28;20171;-70
2021/09/25 11:41:17;;;;;;;29.70;21.02;;;;;;;;;;4994544;28;20188;-69
2021/09/25 11:43:52;;;;;;;26.33;20.77;;;;;;;;;;4993628;28;20196;-69
2021/09/25 11:46:18;;;;;;;32.35;22.98;;;;;;;;;;4995458;28;20447;-70
2021/09/25 11:48:43;;;;;;;27.52;20.17;;;;;;;;;;4993552;28;20547;-70
2021/09/25 11:51:08;;;;;;;27.00;21.35;;;;;;;;;;4993267;28;20200;-70
2021/09/25 11:53:36;;;;;;;27.07;21.03;;;;;;;;;;4992525;28;20164;-70
2021/09/25 11:56:01;;;;;;;27.40;21.00;;;;;;;;;;4993770;28;20409;-70
2021/09/25 11:58:27;;;;;;;24.70;20.98;;;;;;;;;;4993505;28;20560;-70
2021/09/25 12:00:56;;;;;;;25.67;20.08;;;;;;;;;;4993190;28;20664;-70
2021/09/25 12:03:22;;;;;;;25.98;21.23;;;;;;;;;;4993999;28;20191;-71
2021/09/25 12:05:54;;;;;;;25.35;20.65;;;;;;;;;;4993327;28;20183;-70
2021/09/25 12:08:23;;;;;;;28.98;21.73;;;;;;;;;;4992974;28;20192;-70
2021/09/25 12:10:53;;;;;;;25.15;19.90;;;;;;;;;;4993002;28;20190;-70
2021/09/25 12:13:20;;;;;;;27.00;19.67;;;;;;;;;;4993377;28;20725;-70
2021/09/25 12:15:46;;;;;;;28.30;21.20;;;;;;;;;;4994415;28;20186;-70
2021/09/25 12:18:20;;;;;;;25.40;20.13;;;;;;;;;;4993075;28;20204;-70
2021/09/25 12:21:05;;;;;;;26.15;18.95;;;;;;;;;;4992716;28;20255;-70
2021/09/25 12:23:31;;;;;;;26.95;19.70;;;;;;;;;;4996788;28;20188;-70
2021/09/25 12:25:56;;;;;;;23.55;19.85;;;;;;;;;;4993690;28;20228;-70
2021/09/25 12:28:24;;;;;;;26.13;20.42;;;;;;;;;;4993221;28;20286;-70
2021/09/25 12:30:49;;;;;;;25.02;18.85;;;;;;;;;;4992128;28;20179;-69
2021/09/25 12:33:16;;;;;;;23.67;18.40;;;;;;;;;;4993100;28;20242;-70
2021/09/25 12:35:42;;;;;;;28.08;18.83;;;;;;;;;;4992365;28;20179;-69
2021/09/25 12:38:12;;;;;;;23.93;19.37;;;;;;;;;;4992816;28;20204;-70
2021/09/25 12:40:41;;;;;;;24.52;18.58;;;;;;;;;;4992499;28;20401;-70
2021/09/25 12:43:08;;;;;;;24.58;18.80;;;;;;;;;;4992441;28;20187;-69
2021/09/25 12:45:33;;;;;;;23.05;18.13;;;;;;;;;;4994129;28;20211;-69
2021/09/25 12:48:11;;;;;;;28.40;18.80;;;;;;;;;;4994711;28;20235;-69
2021/09/25 12:50:46;;;;;;;26.90;19.02;;;;;;;;;;4991858;28;20404;-69
2021/09/25 12:53:14;;;;;;;24.23;17.15;;;;;;;;;;4992310;28;20676;-69
2021/09/25 12:55:39;;;;;;;23.33;15.60;;;;;;;;;;4992682;28;20191;-69
2021/09/25 12:58:04;;;;;;;20.23;14.63;;;;;;;;;;4992868;28;20325;-69
2021/09/25 13:00:30;;;;;;;22.55;14.90;;;;;;;;;;4998891;28;20925;-68
2021/09/25 13:02:56;;;;;;;21.92;17.15;;;;;;;;;;4996658;28;20550;-69
2021/09/25 13:05:22;;;;;;;24.20;17.63;;;;;;;;;;4993583;28;20183;-69
2021/09/25 13:07:48;;;;;;;22.80;17.58;;;;;;;;;;4992491;28;20289;-69
2021/09/25 13:10:17;;;;;;;22.60;18.55;;;;;;;;;;4991806;28;20212;-69
2021/09/25 13:12:43;;;;;;;27.85;19.67;;;;;;;;;;4992703;28;20223;-69
2021/09/25 13:15:14;;;;;;;26.40;20.08;;;;;;;;;;4990187;28;20171;-69
2021/09/25 13:17:43;;;;;;;27.38;21.20;;;;;;;;;;4993426;28;20198;-69
2021/09/25 13:20:10;;;;;;;28.60;20.98;;;;;;;;;;4993931;28;20536;-70
2021/09/25 13:22:35;;;;;;;24.17;18.20;;;;;;;;;;5003795;28;20204;-69
2021/09/25 13:25:01;;;;;;;30.00;22.35;;;;;;;;;;5003434;28;20191;-70
2021/09/25 13:27:27;;;;;;;32.90;25.10;;;;;;;;;;5003018;28;20207;-70
2021/09/25 13:29:53;;;;;;;29.35;24.25;;;;;;;;;;5000732;28;20551;-70
2021/09/25 13:32:18;;;;;;;28.75;25.50;;;;;;;;;;5001601;28;20206;-70
2021/09/25 13:34:43;;;;;;;28.55;25.48;;;;;;;;;;4986663;28;20188;-69
2021/09/25 13:37:08;;;;;;;31.63;25.13;;;;;;;;;;4995488;28;20727;-70
2021/09/25 13:39:34;;;;;;;30.83;25.42;;;;;;;;;;5000159;28;20172;-70
2021/09/25 13:42:00;;;;;;;27.05;23.48;;;;;;;;;;4996873;28;20286;-69
2021/09/25 13:44:25;;;;;;;30.45;24.38;;;;;;;;;;4992621;28;20197;-70
2021/09/25 13:46:50;;;;;;;27.33;21.95;;;;;;;;;;4993162;28;20633;-70
2021/09/25 13:49:17;;;;;;;25.17;19.97;;;;;;;;;;4977422;28;20230;-69
2021/09/25 13:51:42;;;;;;;27.30;22.23;;;;;;;;;;4991119;28;20199;-70
2021/09/25 13:54:08;;;;;;;24.85;21.95;;;;;;;;;;4991717;28;20295;-69
2021/09/25 13:56:34;;;;;;;29.63;22.40;;;;;;;;;;4998553;28;20266;-70
2021/09/25 13:58:59;;;;;;;30.02;20.88;;;;;;;;;;4991474;28;20210;-69
2021/09/25 14:01:24;;;;;;;24.13;20.17;;;;;;;;;;4992820;28;20238;-69
2021/09/25 14:03:50;;;;;;;23.80;19.55;;;;;;;;;;4992015;28;20552;-69
2021/09/25 14:06:15;;;;;;;21.80;18.15;;;;;;;;;;5005591;23;20203;-70
2021/09/25 14:08:44;;;;;;;23.58;21.05;;;;;;;;;;4998471;28;20199;-70
2021/09/25 14:11:09;;;;;;;22.98;20.35;;;;;;;;;;5010958;28;20623;-70
2021/09/25 14:13:41;;;;;;;26.90;20.07;;;;;;;;;;5011268;28;20189;-70